Time;durP1;ratioP1;P1;durP2;ratioP2;P2;SDS_P1;SDS_P2;PMS_P1;PMS_P2;Temp;Humidity;BMP_temperature;BMP_pressure;BME280_temperature;BME280_humidity;BME280_pressure;Samples;Min_cycle;Max_cycle;Signal;HPM_P1;HPM_P2
2022/11/07 00:01:16;;;;;;;41.02;27.55;;;;;;;8.03;71.26;101380.62;1761016;80;21036;-71
2022/11/07 00:03:44;;;;;;;46.68;30.65;;;;;;;8.01;71.21;101372.83;1753097;80;21094;-72
2022/11/07 00:06:11;;;;;;;40.17;26.12;;;;;;;7.99;71.14;101381.25;1762130;80;21047;-72
2022/11/07 00:08:38;;;;;;;36.83;27.27;;;;;;;7.98;71.12;101378.23;1753715;80;21610;-72
2022/11/07 00:11:05;;;;;;;41.80;27.32;;;;;;;8.02;71.09;101376.29;1761018;80;21990;-72
2022/11/07 00:13:33;;;;;;;38.78;27.10;;;;;;;8.04;71.04;101375.77;1760383;80;21091;-71
2022/11/07 00:16:05;;;;;;;40.40;28.75;;;;;;;8.03;71.15;101377.52;1751420;80;21072;-70
2022/11/07 00:18:32;;;;;;;44.48;29.30;;;;;;;8.02;71.28;101377.60;1753576;80;21035;-69
2022/11/07 00:21:07;;;;;;;47.60;28.15;;;;;;;8.00;71.35;101380.30;1757113;80;21071;-70
2022/11/07 00:23:35;;;;;;;42.95;26.57;;;;;;;8.02;71.22;101382.84;1754894;80;21042;-71
2022/11/07 00:26:05;;;;;;;47.35;27.67;;;;;;;8.06;71.08;101377.84;1752813;80;21739;-70
2022/11/07 00:28:37;;;;;;;40.17;27.70;;;;;;;8.08;71.14;101377.28;1757768;80;21117;-71
2022/11/07 00:31:05;;;;;;;43.30;29.72;;;;;;;8.07;71.30;101374.27;1763704;80;21146;-72
2022/11/07 00:33:32;;;;;;;42.43;29.57;;;;;;;8.06;71.31;101373.43;1755059;80;21137;-71
2022/11/07 00:36:00;;;;;;;41.75;27.73;;;;;;;8.04;71.28;101370.53;1754674;80;22182;-71
2022/11/07 00:38:27;;;;;;;39.25;27.65;;;;;;;8.04;71.33;101379.70;1750571;80;21031;-71
2022/11/07 00:41:03;;;;;;;41.83;28.57;;;;;;;8.10;71.20;101368.86;1761015;80;21050;-70
2022/11/07 00:43:31;;;;;;;43.70;27.70;;;;;;;8.10;71.11;101362.31;1752788;80;21072;-71
2022/11/07 00:46:02;;;;;;;40.78;26.90;;;;;;;8.10;71.20;101366.24;1758246;80;22212;-71
2022/11/07 00:48:31;;;;;;;42.03;28.30;;;;;;;8.08;71.24;101364.17;1699989;83;21041;-72
2022/11/07 00:51:08;;;;;;;37.85;26.62;;;;;;;8.04;71.34;101360.88;1755893;80;21019;-71
2022/11/07 00:53:37;;;;;;;38.25;24.45;;;;;;;8.05;71.35;101359.09;1745762;80;21014;-71
2022/11/07 00:56:06;;;;;;;37.48;26.85;;;;;;;8.11;71.19;101352.22;1758080;80;21122;-70
2022/11/07 00:58:35;;;;;;;36.98;25.85;;;;;;;8.16;71.29;101352.81;1751822;80;21539;-71
2022/11/07 01:01:19;;;;;;;37.67;27.25;;;;;;;8.21;71.29;101349.47;1752799;80;21614;-70
2022/11/07 01:06:34;;;;;;;43.00;27.13;;;;;;;8.15;71.10;101349.80;1746636;80;21044;-71
2022/11/07 01:09:00;;;;;;;35.85;24.77;;;;;;;8.11;71.08;101343.88;1750306;80;21579;-71
2022/11/07 01:11:28;;;;;;;39.42;26.07;;;;;;;8.16;71.05;101344.95;1745869;80;21094;-71
2022/11/07 01:13:56;;;;;;;37.53;26.77;;;;;;;8.19;70.93;101347.41;1752696;80;21232;-70
2022/11/07 01:16:24;;;;;;;42.05;26.97;;;;;;;8.15;70.97;101347.17;1751132;80;21065;-72
2022/11/07 01:18:51;;;;;;;40.92;26.37;;;;;;;8.12;71.10;101345.58;1755751;80;21087;-72
2022/11/07 01:21:18;;;;;;;38.83;26.80;;;;;;;8.11;71.16;101341.73;1748357;80;21513;-72
2022/11/07 01:23:44;;;;;;;35.92;25.40;;;;;;;8.10;71.13;101337.41;1759813;80;21043;-71
2022/11/07 01:26:11;;;;;;;38.78;26.50;;;;;;;8.16;71.00;101333.15;1757122;80;21230;-71
2022/11/07 01:28:38;;;;;;;38.67;26.97;;;;;;;8.21;70.91;101333.74;1750249;80;21026;-72
2022/11/07 01:31:09;;;;;;;36.53;25.52;;;;;;;8.22;71.02;101330.20;1714734;82;21940;-71
2022/11/07 01:33:36;;;;;;;37.90;27.17;;;;;;;8.21;70.96;101325.88;1758178;80;21669;-72
2022/11/07 01:36:10;;;;;;;36.28;24.98;;;;;;;8.17;70.93;101327.83;1750594;80;21289;-71
2022/11/07 01:38:38;;;;;;;34.63;23.95;;;;;;;8.15;70.87;101327.07;1756016;80;21239;-71
2022/11/07 01:41:24;;;;;;;36.20;24.72;;;;;;;8.18;70.80;101327.35;1756613;80;21047;-72
2022/11/07 01:44:07;;;;;;;39.98;25.72;;;;;;;8.21;70.71;101327.66;1761435;80;21035;-72
2022/11/07 01:46:40;;;;;;;37.78;24.85;;;;;;;8.15;70.84;101315.27;1756008;80;21098;-72
2022/11/07 01:49:23;;;;;;;34.70;25.10;;;;;;;8.13;71.02;101320.20;1755075;80;21115;-72
2022/11/07 01:52:21;;;;;;;34.13;24.10;;;;;;;8.09;71.10;101322.16;1756968;80;21160;-72
2022/11/07 01:54:55;;;;;;;36.23;24.65;;;;;;;8.11;71.05;101322.07;1761425;80;21070;-72
2022/11/07 01:57:26;;;;;;;36.40;24.52;;;;;;;8.16;70.92;101318.73;1756151;80;21070;-72
2022/11/07 01:59:53;;;;;;;33.35;24.85;;;;;;;8.21;70.97;101318.48;1761946;80;21094;-71
2022/11/07 02:02:23;;;;;;;32.80;23.52;;;;;;;8.21;70.97;101315.39;1755375;80;21040;-71
2022/11/07 02:04:50;;;;;;;32.98;24.32;;;;;;;8.21;70.94;101311.45;1751761;80;21148;-71
2022/11/07 02:07:21;;;;;;;35.40;22.82;;;;;;;8.21;70.97;101315.39;1753101;80;21047;-72
2022/11/07 02:09:52;;;;;;;33.33;23.38;;;;;;;8.23;70.82;101311.37;1694428;82;21100;-71
2022/11/07 02:12:21;;;;;;;32.63;24.12;;;;;;;8.27;70.55;101308.50;1753643;80;21071;-71
2022/11/07 02:14:48;;;;;;;34.63;24.80;;;;;;;8.31;70.54;101306.08;1755692;80;21054;-71
2022/11/07 02:17:15;;;;;;;36.25;25.40;;;;;;;8.29;70.60;101301.39;1754516;80;21306;-72
2022/11/07 02:19:48;;;;;;;36.98;24.27;;;;;;;8.28;70.67;101303.63;1756934;80;21039;-71
2022/11/07 02:22:44;;;;;;;32.85;23.30;;;;;;;8.25;70.67;101297.71;1752345;80;21043;-72
2022/11/07 02:25:13;;;;;;;35.52;23.83;;;;;;;8.24;70.63;101296.88;1760146;80;21677;-72
2022/11/07 02:27:40;;;;;;;31.60;23.62;;;;;;;8.30;70.49;101291.27;1752687;80;21008;-72
2022/11/07 02:30:11;;;;;;;34.03;24.72;;;;;;;8.31;70.42;101295.59;1758747;80;21268;-72
2022/11/07 02:32:38;;;;;;;33.45;24.50;;;;;;;8.30;70.57;101291.27;1763432;80;21027;-72
2022/11/07 02:35:09;;;;;;;35.38;24.65;;;;;;;8.28;70.59;101297.06;1756536;80;21081;-72
2022/11/07 02:37:37;;;;;;;36.77;22.20;;;;;;;8.27;70.60;101296.70;1740839;80;21104;-72
2022/11/07 02:40:07;;;;;;;35.30;23.18;;;;;;;8.29;70.59;101303.18;1761258;80;21018;-72
2022/11/07 02:42:42;;;;;;;35.73;24.10;;;;;;;8.32;70.39;101298.61;1768671;80;21796;-72
2022/11/07 02:45:14;;;;;;;36.73;23.90;;;;;;;8.33;70.35;101298.97;1761556;80;21046;-72
2022/11/07 02:47:41;;;;;;;31.75;23.20;;;;;;;8.32;70.45;101290.73;1765224;80;20999;-72
2022/11/07 02:50:09;;;;;;;28.75;22.85;;;;;;;8.29;70.43;101292.22;1755188;80;21067;-71
2022/11/07 02:52:36;;;;;;;33.85;22.85;;;;;;;8.26;70.58;101288.45;1758334;80;21070;-72
2022/11/07 02:55:04;;;;;;;31.95;22.95;;;;;;;8.27;70.59;101283.59;1765875;79;22112;-72
2022/11/07 02:57:31;;;;;;;34.65;22.45;;;;;;;8.32;70.37;101276.31;1761408;80;21908;-71
2022/11/07 02:59:58;;;;;;;31.62;22.60;;;;;;;8.34;70.32;101277.06;1767219;80;20995;-71
2022/11/07 03:02:25;;;;;;;32.17;23.38;;;;;;;8.34;70.40;101274.92;1769603;80;21121;-71
2022/11/07 03:04:52;;;;;;;34.55;23.02;;;;;;;8.32;70.35;101273.69;1767508;80;21082;-71
2022/11/07 03:07:18;;;;;;;33.40;21.82;;;;;;;8.31;70.30;101287.72;1771220;80;21151;-71
2022/11/07 03:09:46;;;;;;;30.72;21.97;;;;;;;8.27;70.35;101285.35;1765068;80;20983;-72
2022/11/07 03:12:13;;;;;;;30.45;20.12;;;;;;;8.27;70.29;101286.66;1762471;80;21039;-72
2022/11/07 03:14:41;;;;;;;31.12;21.33;;;;;;;8.32;70.09;101284.63;1763686;80;21106;-71
2022/11/07 03:17:08;;;;;;;29.30;21.25;;;;;;;8.34;70.02;101274.92;1761474;80;21539;-71
2022/11/07 03:19:36;;;;;;;28.40;21.20;;;;;;;8.34;70.03;101283.63;1704680;82;21037;-71
2022/11/07 03:22:03;;;;;;;35.03;22.32;;;;;;;8.32;70.02;101289.88;1764882;80;21030;-71
2022/11/07 03:24:31;;;;;;;32.08;22.32;;;;;;;8.29;70.10;101293.53;1772744;79;21030;-72
2022/11/07 03:26:58;;;;;;;26.23;19.73;;;;;;;8.29;70.08;101296.15;1759097;80;21014;-72
2022/11/07 03:29:24;;;;;;;28.92;20.02;;;;;;;8.30;69.96;101299.13;1762566;80;21011;-71
2022/11/07 03:31:51;;;;;;;29.35;22.15;;;;;;;8.36;69.80;101294.86;1760499;80;21205;-72
2022/11/07 03:34:17;;;;;;;31.82;20.97;;;;;;;8.38;69.70;101300.03;1758681;80;21142;-72
2022/11/07 03:36:44;;;;;;;29.37;21.73;;;;;;;8.37;69.74;101295.26;1752903;80;21031;-72
2022/11/07 03:39:10;;;;;;;30.25;21.62;;;;;;;8.36;69.82;101297.97;1757198;80;21047;-71
2022/11/07 03:41:37;;;;;;;31.37;21.90;;;;;;;8.33;69.78;101298.97;1757323;80;21054;-71
2022/11/07 03:44:04;;;;;;;32.98;20.05;;;;;;;8.30;69.74;101296.51;1756773;80;21496;-71
2022/11/07 03:46:30;;;;;;;26.42;19.12;;;;;;;8.28;69.72;101291.83;1765316;80;21053;-71
2022/11/07 03:48:57;;;;;;;29.60;20.35;;;;;;;8.34;69.64;101294.59;1752639;80;21464;-72
2022/11/07 03:51:24;;;;;;;28.10;19.98;;;;;;;8.38;69.55;101293.00;1748726;80;22420;-71
2022/11/07 03:53:51;;;;;;;26.12;19.52;;;;;;;8.38;69.52;101286.91;1752673;80;21492;-72
2022/11/07 03:56:17;;;;;;;29.70;20.15;;;;;;;8.37;69.50;101293.08;1761887;80;21288;-71
2022/11/07 03:58:44;;;;;;;26.10;20.35;;;;;;;8.33;69.51;101290.27;1756190;80;21237;-71
2022/11/07 04:01:12;;;;;;;25.92;19.70;;;;;;;8.32;69.48;101285.49;1755458;80;21042;-71
2022/11/07 04:03:38;;;;;;;26.82;18.57;;;;;;;8.31;69.24;101286.41;1755481;80;21125;-71
2022/11/07 04:06:05;;;;;;;25.72;20.17;;;;;;;8.35;69.12;101277.45;1702243;83;21039;-71
2022/11/07 04:08:32;;;;;;;29.42;19.57;;;;;;;8.38;69.09;101272.02;1693897;83;21258;-71
2022/11/07 04:10:59;;;;;;;28.05;19.82;;;;;;;8.38;69.00;101271.17;1755522;80;21162;-72
2022/11/07 04:18:56;;;;;;;30.80;19.03;;;;;;;8.27;68.88;101265.24;1687554;82;21063;-71
2022/11/07 04:21:23;;;;;;;24.30;18.05;;;;;;;8.28;68.82;101268.22;1698130;82;21233;-71
2022/11/07 04:23:49;;;;;;;25.45;18.80;;;;;;;8.31;68.63;101268.06;1752174;80;21023;-71
2022/11/07 04:29:01;;;;;;;25.12;18.90;;;;;;;8.32;68.67;101267.58;1751332;80;21051;-71
2022/11/07 04:31:27;;;;;;;27.42;18.62;;;;;;;8.31;68.63;101268.06;1761145;80;21567;-71
2022/11/07 04:33:54;;;;;;;25.52;18.05;;;;;;;8.29;68.67;101268.62;1715378;82;21154;-71
2022/11/07 04:36:21;;;;;;;25.88;18.40;;;;;;;8.28;68.70;101266.91;1738134;80;21081;-71
2022/11/07 04:38:47;;;;;;;23.38;17.40;;;;;;;8.27;68.55;101264.37;1763402;80;21001;-71
2022/11/07 04:41:22;;;;;;;27.55;18.37;;;;;;;8.32;68.43;101273.69;1754780;80;20997;-70
2022/11/07 04:43:49;;;;;;;23.80;18.23;;;;;;;8.34;68.28;101265.74;1754441;79;21141;-71
2022/11/07 04:46:16;;;;;;;28.25;18.73;;;;;;;8.30;68.37;101268.98;1699402;82;21516;-71
2022/11/07 04:48:43;;;;;;;25.20;18.45;;;;;;;8.32;68.28;101268.45;1771929;80;21083;-71
2022/11/07 04:51:15;;;;;;;21.95;17.25;;;;;;;8.25;68.41;101271.02;1761874;80;21525;-70
2022/11/07 04:53:43;;;;;;;25.20;17.32;;;;;;;8.21;68.48;101275.23;1760937;80;21031;-71
2022/11/07 04:56:09;;;;;;;25.68;16.97;;;;;;;8.21;68.53;101278.69;1747441;80;21056;-71
2022/11/07 04:58:36;;;;;;;22.25;16.57;;;;;;;8.25;68.40;101272.33;1758937;80;21296;-70
2022/11/07 05:01:02;;;;;;;25.88;19.02;;;;;;;8.27;68.29;101263.06;1761538;80;21035;-71
2022/11/07 05:03:29;;;;;;;26.25;18.77;;;;;;;8.26;68.25;101263.54;1763047;80;21497;-70
2022/11/07 05:05:55;;;;;;;24.07;18.65;;;;;;;8.26;68.25;101261.39;1696364;82;21083;-70
2022/11/07 05:08:22;;;;;;;26.48;18.10;;;;;;;8.23;68.29;101261.08;1768212;80;21042;-70
2022/11/07 05:10:48;;;;;;;25.82;16.73;;;;;;;8.22;68.40;101259.86;1706105;83;21132;-70
2022/11/07 05:13:15;;;;;;;23.98;17.60;;;;;;;8.22;68.22;101263.34;1760255;80;21015;-71
2022/11/07 05:15:41;;;;;;;23.40;16.93;;;;;;;8.25;68.08;101257.91;1756473;80;21548;-70
2022/11/07 05:18:09;;;;;;;25.02;17.42;;;;;;;8.29;67.97;101256.81;1769111;80;22218;-70
2022/11/07 05:20:37;;;;;;;22.85;17.85;;;;;;;8.25;67.86;101261.84;1762129;80;20999;-71
2022/11/07 05:23:20;;;;;;;25.12;19.50;;;;;;;8.22;68.01;101274.28;1749577;80;21195;-71
2022/11/07 05:25:51;;;;;;;23.35;18.40;;;;;;;8.19;68.05;101284.02;1697409;82;21043;-70
2022/11/07 05:28:21;;;;;;;22.98;17.82;;;;;;;8.14;68.12;101286.05;1759258;80;21067;-71
2022/11/07 05:30:48;;;;;;;23.22;16.52;;;;;;;8.14;68.10;101284.73;1763579;80;21078;-71
2022/11/07 05:33:16;;;;;;;25.40;16.80;;;;;;;8.20;67.97;101292.71;1751783;80;21118;-71
2022/11/07 05:35:44;;;;;;;26.05;17.85;;;;;;;8.23;67.95;101293.02;1752156;81;22152;-70
2022/11/07 05:38:11;;;;;;;25.25;18.45;;;;;;;8.24;68.08;101302.12;1756436;80;21541;-70
2022/11/07 05:40:38;;;;;;;25.72;17.75;;;;;;;8.23;68.03;101295.64;1743244;81;21074;-71
2022/11/07 05:43:08;;;;;;;23.20;17.70;;;;;;;8.22;67.98;101299.19;1760667;81;21066;-71
2022/11/07 05:45:37;;;;;;;24.57;18.77;;;;;;;8.18;67.98;101299.35;1765524;80;20992;-71
2022/11/07 05:48:06;;;;;;;27.55;17.25;;;;;;;8.18;67.97;101315.55;1760884;81;21250;-70
2022/11/07 05:50:34;;;;;;;25.23;17.80;;;;;;;8.23;67.88;101312.69;1757646;81;21686;-71
2022/11/07 05:53:00;;;;;;;24.23;17.40;;;;;;;8.27;67.87;101316.38;1760074;81;21023;-70
2022/11/07 05:55:27;;;;;;;27.65;18.27;;;;;;;8.26;67.94;101314.67;1753231;81;21090;-71
2022/11/07 05:57:54;;;;;;;24.80;18.65;;;;;;;8.27;67.90;101316.38;1751790;80;21118;-70
2022/11/07 06:00:21;;;;;;;22.67;17.73;;;;;;;8.25;67.84;101318.21;1751479;81;21260;-66
2022/11/07 06:02:56;;;;;;;31.25;19.10;;;;;;;8.22;67.83;101317.53;1756540;81;21035;-69
2022/11/07 06:05:22;;;;;;;28.23;17.30;;;;;;;8.19;67.88;101322.50;1755135;81;21075;-71
2022/11/07 06:07:50;;;;;;;21.93;16.23;;;;;;;8.19;67.86;101315.95;1754475;81;21028;-71
2022/11/07 06:10:18;;;;;;;23.83;17.55;;;;;;;8.23;67.67;101317.93;1749455;81;21028;-71
2022/11/07 06:12:45;;;;;;;22.60;17.45;;;;;;;8.24;67.75;101322.23;1752703;81;21902;-71
2022/11/07 06:17:26;;;;;;;28.57;18.25;;;;;;;8.07;68.55;101317.91;1793574;77;22558;-70
2022/11/07 06:19:52;;;;;;;25.62;18.87;;;;;;;8.12;68.17;101312.81;1776057;78;21038;-70
2022/11/07 06:22:19;;;;;;;25.60;17.98;;;;;;;8.11;68.14;101314.21;1761858;78;21140;-71
2022/11/07 06:24:45;;;;;;;23.83;18.00;;;;;;;8.09;68.30;101308.21;1772478;78;21574;-70
2022/11/07 06:27:13;;;;;;;25.00;17.45;;;;;;;8.11;68.22;101312.90;1770695;78;20970;-69
2022/11/07 06:29:40;;;;;;;23.15;16.77;;;;;;;8.20;68.04;101311.06;1782773;78;21007;-70
2022/11/07 06:32:06;;;;;;;22.65;17.73;;;;;;;8.24;67.97;101309.11;1764634;80;21062;-70
2022/11/07 06:34:33;;;;;;;29.85;18.95;;;;;;;8.25;68.14;101312.13;1768765;80;21280;-70
2022/11/07 06:36:59;;;;;;;26.05;18.55;;;;;;;8.26;68.18;101313.83;1776060;80;20978;-66
2022/11/07 06:39:26;;;;;;;26.02;19.50;;;;;;;8.26;67.87;101312.05;1778143;80;21034;-67
2022/11/07 06:41:52;;;;;;;25.72;18.40;;;;;;;8.22;67.84;101313.61;1764564;80;20942;-71
2022/11/07 06:44:19;;;;;;;24.07;17.17;;;;;;;8.18;67.95;101322.11;1768364;80;21054;-67
2022/11/07 06:46:45;;;;;;;26.77;17.73;;;;;;;8.16;67.96;101319.56;1775065;80;21203;-70
2022/11/07 06:49:14;;;;;;;26.17;17.62;;;;;;;8.21;67.78;101321.95;1772101;79;21029;-67
2022/11/07 06:51:41;;;;;;;24.82;18.42;;;;;;;8.25;67.80;101328.70;1766229;80;21117;-68
2022/11/07 06:54:07;;;;;;;28.17;19.55;;;;;;;8.25;67.84;101323.45;1766768;80;21721;-70
2022/11/07 06:56:34;;;;;;;23.92;18.42;;;;;;;8.25;67.87;101326.08;1762698;80;21047;-69
2022/11/07 06:59:01;;;;;;;23.52;18.55;;;;;;;8.25;67.92;101322.14;1761450;80;21183;-70
2022/11/07 07:01:28;;;;;;;29.20;19.73;;;;;;;8.24;67.81;101318.29;1768877;80;21028;-68
2022/11/07 07:03:55;;;;;;;25.25;19.10;;;;;;;8.19;67.81;101317.26;1765343;80;21081;-67
2022/11/07 07:06:21;;;;;;;24.52;18.00;;;;;;;8.18;67.84;101316.87;1709662;83;21090;-69
2022/11/07 07:08:48;;;;;;;25.32;18.45;;;;;;;8.23;67.82;101314.84;1697379;83;21055;-71
2022/11/07 07:11:15;;;;;;;28.27;18.32;;;;;;;8.28;67.80;101320.67;1705441;83;21571;-70
2022/11/07 07:13:42;;;;;;;28.38;19.95;;;;;;;8.31;67.90;101315.73;1717934;83;21066;-71
2022/11/07 07:16:08;;;;;;;24.63;19.05;;;;;;;8.31;67.91;101313.11;1707926;82;21442;-68
2022/11/07 07:18:35;;;;;;;26.02;18.42;;;;;;;8.32;68.01;101318.72;1757421;80;21078;-69
2022/11/07 07:21:08;;;;;;;23.98;17.65;;;;;;;8.30;67.94;101316.66;1707876;82;21350;-69
2022/11/07 07:23:35;;;;;;;25.57;17.12;;;;;;;8.30;67.75;101317.48;1762987;80;21076;-68
2022/11/07 07:26:03;;;;;;;27.30;18.65;;;;;;;8.35;67.68;101319.86;1755085;80;21008;-71
2022/11/07 07:28:29;;;;;;;22.80;17.60;;;;;;;8.38;67.64;101319.22;1762896;80;21094;-70
2022/11/07 07:31:14;;;;;;;24.50;18.42;;;;;;;8.38;67.65;101327.09;1761900;80;20948;-68
2022/11/07 07:33:41;;;;;;;28.35;18.27;;;;;;;8.37;67.71;101325.86;1759365;80;21047;-70
2022/11/07 07:36:09;;;;;;;33.35;18.95;;;;;;;8.36;67.59;101327.65;1752066;80;21181;-68
2022/11/07 07:38:36;;;;;;;29.85;19.00;;;;;;;8.35;67.59;101331.22;1762063;80;21617;-68
2022/11/07 07:41:03;;;;;;;25.17;17.77;;;;;;;8.34;67.68;101333.92;1754696;80;21485;-66
2022/11/07 07:43:29;;;;;;;23.70;18.23;;;;;;;8.39;67.70;101333.20;1758798;80;21098;-67
2022/11/07 07:46:02;;;;;;;25.27;17.57;;;;;;;8.43;67.63;101332.59;1758300;80;21118;-69
2022/11/07 07:48:29;;;;;;;25.80;18.73;;;;;;;8.45;67.55;101338.59;1757779;80;21849;-70
2022/11/07 07:50:56;;;;;;;25.20;18.75;;;;;;;8.43;67.50;101333.43;1765184;80;21055;-70
2022/11/07 07:53:23;;;;;;;23.27;16.77;;;;;;;8.42;67.38;101326.92;1767372;80;21015;-69
2022/11/07 07:55:52;;;;;;;25.08;18.40;;;;;;;8.40;67.44;101325.69;1763333;80;21031;-70
2022/11/07 07:58:18;;;;;;;22.27;17.05;;;;;;;8.38;67.30;101327.56;1767282;80;21040;-70
2022/11/07 08:00:44;;;;;;;21.62;16.40;;;;;;;8.41;67.43;101322.16;1775722;80;21260;-70
2022/11/07 08:03:11;;;;;;;22.55;17.35;;;;;;;8.49;67.24;101325.67;1761377;80;21289;-70
2022/11/07 08:05:38;;;;;;;25.40;17.50;;;;;;;8.50;67.30;101327.38;1768706;80;21074;-70
2022/11/07 08:08:06;;;;;;;23.22;17.85;;;;;;;8.55;67.10;101325.34;1759901;80;21077;-68
2022/11/07 08:10:33;;;;;;;21.93;16.90;;;;;;;8.55;67.08;101320.92;1758043;80;21579;-69
2022/11/07 08:13:00;;;;;;;25.00;18.52;;;;;;;8.57;68.07;101326.09;1772333;80;21896;-69
2022/11/07 08:15:26;;;;;;;22.20;15.93;;;;;;;8.54;67.51;101321.87;1759794;80;21348;-70
2022/11/07 08:17:53;;;;;;;22.95;16.42;;;;;;;8.56;67.41;101328.35;1763381;80;21813;-69
2022/11/07 08:20:23;;;;;;;21.52;16.45;;;;;;;8.64;67.00;101328.77;1757538;80;21019;-68
2022/11/07 08:22:49;;;;;;;23.00;15.72;;;;;;;8.73;67.20;101334.78;1762817;80;21535;-70
2022/11/07 08:25:16;;;;;;;24.27;16.48;;;;;;;8.80;66.80;101339.69;1763168;80;21079;-70
2022/11/07 08:27:44;;;;;;;25.25;17.62;;;;;;;8.77;66.57;101338.55;1755665;80;21539;-71
2022/11/07 08:30:13;;;;;;;23.73;17.57;;;;;;;8.67;66.78;101341.69;1756935;80;21110;-70
2022/11/07 08:32:40;;;;;;;22.80;17.20;;;;;;;8.66;67.09;101340.48;1752686;80;21051;-70
2022/11/07 08:35:08;;;;;;;24.40;17.07;;;;;;;8.62;67.07;101344.20;1760565;80;21113;-70
2022/11/07 08:37:36;;;;;;;25.35;17.30;;;;;;;8.62;67.03;101346.34;1751418;80;21082;-71
2022/11/07 08:40:04;;;;;;;28.05;16.32;;;;;;;8.67;67.02;101343.00;1751762;80;21078;-70
2022/11/07 08:42:30;;;;;;;26.02;16.42;;;;;;;8.69;66.85;101338.98;1763235;80;21109;-70
2022/11/07 08:44:57;;;;;;;25.70;16.87;;;;;;;8.66;66.95;101343.95;1765857;80;21322;-70
2022/11/07 08:47:23;;;;;;;22.82;15.28;;;;;;;8.67;66.99;101341.69;1757723;80;21175;-71
2022/11/07 08:49:50;;;;;;;23.38;17.70;;;;;;;8.69;66.84;101350.34;1757914;80;21229;-71
2022/11/07 08:52:17;;;;;;;22.10;16.17;;;;;;;8.61;66.87;101345.13;1757654;80;21137;-70
2022/11/07 08:54:43;;;;;;;31.62;16.95;;;;;;;8.61;66.74;101339.88;1758358;80;21055;-69
2022/11/07 08:57:10;;;;;;;20.23;15.20;;;;;;;8.57;66.77;101333.13;1762245;80;21119;-74
2022/11/07 08:59:37;;;;;;;31.55;17.85;;;;;;;8.61;66.78;101334.63;1765180;80;21135;-67
2022/11/07 09:02:04;;;;;;;31.68;18.10;;;;;;;8.71;66.73;101330.09;1765220;80;21251;-70
2022/11/07 09:04:30;;;;;;;26.60;16.85;;;;;;;8.68;66.90;101326.33;1696540;84;21052;-68
2022/11/07 09:06:57;;;;;;;28.70;16.55;;;;;;;8.62;67.30;101318.80;1744775;80;21568;-70
2022/11/07 09:09:24;;;;;;;22.02;17.00;;;;;;;8.60;67.44;101319.84;1750063;79;21518;-70
2022/11/07 09:11:52;;;;;;;23.67;15.90;;;;;;;8.55;67.67;101317.47;1750891;80;21075;-69
2022/11/07 09:14:20;;;;;;;25.85;16.27;;;;;;;8.53;67.98;101318.86;1692523;82;21256;-70
2022/11/07 09:16:47;;;;;;;27.32;16.87;;;;;;;8.57;68.05;101314.28;1761330;80;21075;-69
2022/11/07 09:19:13;;;;;;;25.25;17.12;;;;;;;8.58;68.25;101307.28;1755048;80;21186;-69
2022/11/07 09:21:40;;;;;;;24.15;16.80;;;;;;;8.55;68.58;101303.04;1752107;80;21009;-69
2022/11/07 09:24:07;;;;;;;26.52;16.42;;;;;;;8.53;68.77;101307.53;1758986;79;21062;-70
2022/11/07 09:26:33;;;;;;;22.60;16.15;;;;;;;8.46;68.94;101302.27;1759434;80;21246;-69
2022/11/07 09:29:00;;;;;;;23.57;16.52;;;;;;;8.38;69.27;101294.78;1765484;80;21054;-70
2022/11/07 09:31:27;;;;;;;20.75;15.23;;;;;;;8.35;69.47;101301.06;1752727;80;21093;-70
2022/11/07 09:33:53;;;;;;;21.68;15.08;;;;;;;8.40;69.60;101292.08;1757996;80;21094;-69
2022/11/07 09:36:21;;;;;;;23.05;15.85;;;;;;;8.42;69.47;101288.89;1757415;80;21050;-70
2022/11/07 09:38:48;;;;;;;27.65;17.50;;;;;;;8.40;69.67;101290.28;1764131;80;21211;-70
2022/11/07 09:41:26;;;;;;;22.65;16.17;;;;;;;8.37;69.79;101284.77;1753471;80;21043;-70
2022/11/07 09:44:30;;;;;;;20.35;15.08;;;;;;;8.34;69.80;101290.66;1759879;80;22218;-69
2022/11/07 09:47:18;;;;;;;22.67;15.40;;;;;;;8.26;70.02;101287.14;1765679;80;21050;-71
2022/11/07 09:49:51;;;;;;;24.02;15.88;;;;;;;8.25;69.90;101276.26;1764591;80;21031;-71
2022/11/07 09:52:31;;;;;;;17.90;13.90;;;;;;;8.26;69.92;101279.75;1756896;80;21627;-69
2022/11/07 09:55:18;;;;;;;21.85;15.88;;;;;;;8.29;70.07;101280.41;1756231;80;21102;-67
2022/11/07 09:57:45;;;;;;;23.00;15.03;;;;;;;8.30;69.98;101286.02;1765801;80;21030;-70
2022/11/07 10:03:07;;;;;;;19.27;14.33;;;;;;;8.20;70.26;101273.05;1778899;78;22771;-68
2022/11/07 10:06:07;;;;;;;19.60;14.63;;;;;;;8.26;70.12;101276.65;1748570;80;20913;-67
2022/11/07 10:09:05;;;;;;;19.50;14.58;;;;;;;8.33;69.94;101268.81;1754788;80;21114;-68
2022/11/07 10:11:46;;;;;;;20.37;14.53;;;;;;;8.39;69.81;101263.70;1750069;79;21097;-67
2022/11/07 10:14:39;;;;;;;22.80;15.65;;;;;;;8.37;69.70;101266.41;1734856;80;21092;-66
2022/11/07 10:17:41;;;;;;;19.20;14.55;;;;;;;8.36;69.46;101260.77;1740816;80;21045;-68
2022/11/07 10:20:25;;;;;;;21.15;15.00;;;;;;;8.33;68.95;101259.63;1720309;81;21030;-67
2022/11/07 10:23:16;;;;;;;20.75;14.95;;;;;;;8.28;68.94;101263.45;1694457;83;21865;-69
2022/11/07 10:26:11;;;;;;;20.35;14.05;;;;;;;8.25;68.87;101260.53;1691267;84;21074;-68
2022/11/07 10:29:13;;;;;;;20.82;14.23;;;;;;;8.29;68.66;101257.30;1701221;81;21093;-69
2022/11/07 10:31:55;;;;;;;18.98;14.20;;;;;;;8.30;68.54;101253.24;1706543;83;21059;-68
2022/11/07 10:34:46;;;;;;;23.32;14.85;;;;;;;8.26;68.49;101246.50;1703255;82;21117;-69
2022/11/07 10:37:12;;;;;;;23.40;16.17;;;;;;;8.24;68.35;101236.56;1706978;82;21078;-68
2022/11/07 10:39:39;;;;;;;19.92;14.75;;;;;;;8.20;68.32;101233.72;1707214;82;21519;-69
2022/11/07 10:42:14;;;;;;;19.12;14.07;;;;;;;8.16;68.12;101233.53;1713834;82;21141;-68
2022/11/07 10:44:41;;;;;;;22.22;14.90;;;;;;;8.15;67.84;101227.45;1695423;82;21070;-69
2022/11/07 10:47:21;;;;;;;21.48;13.62;;;;;;;8.20;67.53;101221.92;1703228;82;21026;-68
2022/11/07 10:49:59;;;;;;;20.12;13.65;;;;;;;8.21;67.41;101215.77;1714613;82;22545;-69
2022/11/07 10:52:27;;;;;;;21.20;14.00;;;;;;;8.23;67.19;101212.58;1715200;82;21019;-68
2022/11/07 10:55:16;;;;;;;22.07;13.50;;;;;;;8.19;67.02;101207.14;1711337;82;21149;-69
2022/11/07 10:57:48;;;;;;;18.55;14.50;;;;;;;8.16;67.05;101206.00;1711977;82;21364;-67
2022/11/07 11:00:31;;;;;;;22.30;14.40;;;;;;;8.16;66.88;101207.31;1733671;81;21078;-68
2022/11/07 11:02:57;;;;;;;21.62;14.65;;;;;;;8.11;66.89;101206.73;1688843;83;21111;-67
2022/11/07 11:05:31;;;;;;;21.95;14.58;;;;;;;8.13;66.63;101200.93;1684542;83;21088;-68
2022/11/07 11:08:16;;;;;;;20.70;14.25;;;;;;;8.19;66.63;101207.14;1738976;80;21071;-69
2022/11/07 11:10:44;;;;;;;18.75;13.83;;;;;;;8.22;66.56;101200.42;1745361;80;21055;-69
2022/11/07 11:13:30;;;;;;;19.82;14.35;;;;;;;8.24;66.43;101198.99;1742446;80;21048;-69
2022/11/07 11:16:00;;;;;;;19.27;14.40;;;;;;;8.25;66.49;101202.00;1742806;80;21230;-70
2022/11/07 11:18:28;;;;;;;18.80;13.08;;;;;;;8.23;66.52;101192.08;1741008;80;21685;-68
2022/11/07 11:21:05;;;;;;;19.48;15.00;;;;;;;8.23;66.52;101194.22;1741692;80;21068;-68
2022/11/07 11:23:36;;;;;;;17.32;12.60;;;;;;;8.22;66.28;101197.80;1733268;80;21038;-69
2022/11/07 11:26:09;;;;;;;19.80;12.98;;;;;;;8.25;66.08;101199.38;1724090;80;20999;-68
2022/11/07 11:28:47;;;;;;;18.98;12.95;;;;;;;8.29;66.00;101199.13;1739337;80;21861;-69
2022/11/07 11:31:35;;;;;;;19.57;13.30;;;;;;;8.32;65.97;101196.34;1737167;82;21564;-69
2022/11/07 11:34:58;;;;;;;17.23;12.58;;;;;;;8.34;65.88;101198.40;1737800;80;21516;-69
2022/11/07 11:37:26;;;;;;;17.40;13.30;;;;;;;8.35;65.65;101197.92;1723879;80;21478;-69
2022/11/07 11:40:02;;;;;;;18.62;12.95;;;;;;;8.33;65.54;101195.86;1735511;80;21197;-69
2022/11/07 11:42:35;;;;;;;17.42;12.45;;;;;;;8.31;65.54;101195.95;1705098;82;21127;-69
2022/11/07 11:45:16;;;;;;;16.15;12.58;;;;;;;8.29;65.62;101197.81;1714785;80;21053;-69
2022/11/07 11:47:48;;;;;;;14.50;10.82;;;;;;;8.29;65.54;101187.80;1714243;80;21007;-69